createdAt,value
2019-03-27T00:01:00.540Z,873.00
2019-03-27T00:02:01.086Z,871.00
2019-03-27T00:03:01.566Z,871.00
2019-03-27T00:04:01.983Z,871.00
2019-03-27T00:05:02.561Z,871.00
2019-03-27T00:06:02.550Z,871.00
2019-03-27T00:07:03.129Z,862.00
2019-03-27T00:08:03.829Z,871.00
2019-03-27T00:09:04.311Z,872.00
2019-03-27T00:10:04.825Z,871.00
2019-03-27T00:11:05.539Z,871.00
2019-03-27T00:12:06.087Z,870.00
2019-03-27T00:13:06.441Z,870.00
2019-03-27T00:14:07.181Z,870.00
2019-03-27T00:15:13.248Z,871.00
2019-03-27T00:16:07.509Z,870.00
2019-03-27T00:17:08.147Z,869.00
2019-03-27T00:18:09.839Z,870.00
2019-03-27T00:19:10.393Z,870.00
2019-03-27T00:20:10.968Z,871.00
2019-03-27T00:21:11.707Z,871.00
2019-03-27T00:22:12.228Z,871.00
2019-03-27T00:22:20.768Z,870.00
2019-03-27T00:23:22.525Z,871.00
2019-03-27T00:24:23.145Z,871.00
2019-03-27T00:25:23.712Z,873.00
2019-03-27T00:26:24.207Z,871.00
2019-03-27T00:27:23.732Z,872.00
2019-03-27T00:28:24.971Z,873.00
2019-03-27T00:29:25.714Z,871.00
2019-03-27T00:30:26.148Z,871.00
2019-03-27T00:31:26.956Z,871.00
2019-03-27T00:32:27.440Z,871.00
2019-03-27T00:33:27.867Z,871.00
2019-03-27T00:34:28.764Z,871.00
2019-03-27T00:35:29.440Z,871.00
2019-03-27T00:36:29.957Z,871.00
2019-03-27T00:37:30.375Z,871.00
2019-03-27T00:38:30.840Z,871.00
2019-03-27T00:39:31.684Z,871.00
2019-03-27T00:40:32.162Z,871.00
2019-03-27T00:41:32.997Z,871.00
2019-03-27T00:42:33.890Z,874.00
2019-03-27T00:43:34.716Z,873.00
2019-03-27T00:44:34.307Z,873.00
2019-03-27T00:45:35.541Z,873.00
2019-03-27T00:46:36.016Z,864.00
2019-03-27T00:47:36.466Z,873.00
2019-03-27T00:48:36.933Z,876.00
2019-03-27T00:49:37.930Z,873.00
2019-03-27T00:50:38.344Z,874.00
2019-03-27T00:51:39.034Z,873.00
2019-03-27T00:52:39.404Z,864.00
2019-03-27T00:53:38.875Z,862.00
2019-03-27T00:54:40.407Z,864.00
2019-03-27T00:55:39.808Z,866.00
2019-03-27T00:56:41.281Z,874.00
2019-03-27T00:57:41.711Z,876.00
2019-03-27T00:58:42.238Z,876.00
2019-03-27T00:59:42.688Z,876.00
2019-03-27T01:00:42.990Z,876.00
2019-03-27T01:01:43.682Z,876.00
2019-03-27T01:02:44.132Z,876.00
2019-03-27T01:03:44.633Z,874.00
2019-03-27T01:04:45.291Z,874.00
2019-03-27T01:05:46.053Z,874.00
2019-03-27T01:06:45.485Z,874.00
2019-03-27T01:07:46.056Z,873.00
2019-03-27T01:08:47.675Z,873.00
2019-03-27T01:09:48.139Z,873.00
2019-03-27T01:09:58.755Z,873.00
2019-03-27T01:10:59.227Z,873.00
2019-03-27T01:12:00.699Z,873.00
2019-03-27T01:13:01.198Z,876.00
2019-03-27T01:14:01.888Z,876.00
2019-03-27T01:15:02.612Z,874.00
2019-03-27T01:16:03.455Z,874.00
2019-03-27T01:17:04.164Z,874.00
2019-03-27T01:18:04.745Z,874.00
2019-03-27T01:19:04.234Z,874.00
2019-03-27T01:20:05.801Z,873.00
2019-03-27T01:21:06.451Z,873.00
2019-03-27T01:22:05.978Z,873.00
2019-03-27T01:23:07.475Z,873.00
2019-03-27T01:24:07.943Z,873.00
2019-03-27T01:25:08.472Z,874.00
2019-03-27T01:26:09.118Z,874.00
2019-03-27T01:27:09.696Z,878.00
2019-03-27T01:28:10.144Z,876.00
2019-03-27T01:29:10.688Z,874.00
2019-03-27T01:30:11.073Z,860.00
2019-03-27T01:31:11.407Z,866.00
2019-03-27T01:32:11.995Z,874.00
2019-03-27T01:33:12.615Z,865.00
2019-03-27T01:34:13.040Z,874.00
2019-03-27T01:35:13.306Z,874.00
2019-03-27T01:36:13.709Z,873.00
2019-03-27T01:37:14.257Z,873.00
2019-03-27T01:38:14.891Z,874.00
2019-03-27T01:39:15.598Z,873.00
2019-03-27T01:40:16.157Z,874.00
2019-03-27T01:41:16.677Z,873.00
2019-03-27T01:42:16.996Z,873.00
2019-03-27T01:43:17.474Z,873.00
2019-03-27T01:44:17.902Z,874.00
2019-03-27T01:45:18.353Z,873.00
2019-03-27T01:46:18.850Z,873.00
2019-03-27T01:47:19.285Z,873.00
2019-03-27T01:48:19.777Z,873.00
2019-03-27T01:49:20.283Z,873.00
2019-03-27T01:50:20.781Z,873.00
2019-03-27T01:51:21.365Z,864.00
2019-03-27T01:52:21.795Z,865.00
2019-03-27T01:53:22.608Z,865.00
2019-03-27T01:54:23.105Z,864.00
2019-03-27T01:55:23.748Z,864.00
2019-03-27T01:55:32.757Z,865.00
2019-03-27T01:56:34.138Z,864.00
2019-03-27T01:57:34.534Z,864.00
2019-03-27T01:58:35.088Z,864.00
2019-03-27T01:59:35.606Z,866.00
2019-03-27T02:00:36.087Z,866.00
2019-03-27T02:01:36.563Z,867.00
2019-03-27T02:02:37.045Z,876.00
2019-03-27T02:03:37.795Z,876.00
2019-03-27T02:04:38.369Z,876.00
2019-03-27T02:05:38.657Z,876.00
2019-03-27T02:06:39.082Z,876.00
2019-03-27T02:07:39.576Z,874.00
2019-03-27T02:08:39.044Z,874.00
2019-03-27T02:09:40.620Z,876.00
2019-03-27T02:10:41.019Z,876.00
2019-03-27T02:11:41.538Z,876.00
2019-03-27T02:12:41.930Z,876.00
2019-03-27T02:13:42.469Z,876.00
2019-03-27T02:14:43.070Z,874.00
2019-03-27T02:15:43.373Z,874.00
2019-03-27T02:16:43.814Z,874.00
2019-03-27T02:17:44.289Z,874.00
2019-03-27T02:18:44.734Z,874.00
2019-03-27T02:19:45.298Z,873.00
2019-03-27T02:20:45.718Z,873.00
2019-03-27T02:21:45.996Z,874.00
2019-03-27T02:22:46.473Z,874.00
2019-03-27T02:23:46.962Z,873.00
2019-03-27T02:24:47.738Z,873.00
2019-03-27T02:25:48.218Z,873.00
2019-03-27T02:26:48.566Z,873.00
2019-03-27T02:27:48.881Z,861.00
2019-03-27T02:28:49.355Z,873.00
2019-03-27T02:29:49.929Z,873.00
2019-03-27T02:30:50.496Z,873.00
2019-03-27T02:31:50.892Z,874.00
2019-03-27T02:32:51.247Z,874.00
2019-03-27T02:33:51.654Z,876.00
2019-03-27T02:34:52.238Z,874.00
2019-03-27T02:35:53.067Z,878.00
2019-03-27T02:36:53.712Z,876.00
2019-03-27T02:37:54.112Z,876.00
2019-03-27T02:38:54.568Z,866.00
2019-03-27T02:39:03.084Z,867.00
2019-03-27T02:40:04.501Z,879.00
2019-03-27T02:41:05.109Z,878.00
2019-03-27T02:42:05.601Z,876.00
2019-03-27T02:43:06.114Z,876.00
2019-03-27T02:44:06.612Z,876.00
2019-03-27T02:45:07.479Z,876.00
2019-03-27T02:46:23.340Z,876.00
2019-03-27T02:47:07.552Z,877.00
2019-03-27T02:48:08.956Z,876.00
2019-03-27T02:49:09.404Z,876.00
2019-03-27T02:50:09.737Z,876.00
2019-03-27T02:51:10.330Z,876.00
2019-03-27T02:52:10.763Z,876.00
2019-03-27T02:53:11.265Z,878.00
2019-03-27T02:54:11.702Z,878.00
2019-03-27T02:55:12.098Z,878.00
2019-03-27T02:56:12.635Z,878.00
2019-03-27T02:57:13.258Z,876.00
2019-03-27T02:58:13.743Z,876.00
2019-03-27T02:59:14.455Z,850.00
2019-03-27T03:00:15.323Z,876.00
2019-03-27T03:01:16.192Z,876.00
2019-03-27T03:02:16.673Z,877.00
2019-03-27T03:03:17.087Z,876.00
2019-03-27T03:04:17.403Z,876.00
2019-03-27T03:05:17.805Z,876.00
2019-03-27T03:06:18.351Z,876.00
2019-03-27T03:07:19.101Z,876.00
2019-03-27T03:08:19.596Z,876.00
2019-03-27T03:09:20.159Z,876.00
2019-03-27T03:10:20.647Z,876.00
2019-03-27T03:11:21.195Z,867.00
2019-03-27T03:12:21.862Z,867.00
2019-03-27T03:13:22.566Z,869.00
2019-03-27T03:14:23.297Z,878.00
2019-03-27T03:15:24.220Z,878.00
2019-03-27T03:16:40.885Z,878.00
2019-03-27T03:17:24.317Z,878.00
2019-03-27T03:18:25.764Z,870.00
2019-03-27T03:19:26.232Z,856.00
2019-03-27T03:20:25.838Z,880.00
2019-03-27T03:21:27.341Z,870.00
2019-03-27T03:22:27.859Z,880.00
2019-03-27T03:23:28.461Z,880.00
2019-03-27T03:24:28.917Z,881.00
2019-03-27T03:25:29.450Z,879.00
2019-03-27T03:25:38.016Z,879.00
2019-03-27T03:26:39.528Z,879.00
2019-03-27T03:27:39.162Z,869.00
2019-03-27T03:28:40.894Z,870.00
2019-03-27T03:29:41.431Z,879.00
2019-03-27T03:30:41.705Z,879.00
2019-03-27T03:31:41.424Z,878.00
2019-03-27T03:32:42.896Z,878.00
2019-03-27T03:33:42.314Z,879.00
2019-03-27T03:34:42.741Z,879.00
2019-03-27T03:35:44.238Z,878.00
2019-03-27T03:36:45.063Z,878.00
2019-03-27T03:37:45.474Z,877.00
2019-03-27T03:38:44.578Z,877.00
2019-03-27T03:39:46.040Z,878.00
2019-03-27T03:40:46.466Z,878.00
2019-03-27T03:41:47.045Z,877.00
2019-03-27T03:42:46.549Z,876.00
2019-03-27T03:43:48.000Z,876.00
2019-03-27T03:44:48.488Z,876.00
2019-03-27T03:45:48.977Z,877.00
2019-03-27T03:46:59.502Z,876.00
2019-03-27T03:47:49.120Z,876.00
2019-03-27T03:48:51.014Z,877.00
2019-03-27T03:49:51.626Z,878.00
2019-03-27T03:50:51.213Z,879.00
2019-03-27T03:51:52.816Z,879.00
2019-03-27T03:52:53.378Z,879.00
2019-03-27T03:53:54.107Z,880.00
2019-03-27T03:54:55.061Z,879.00
2019-03-27T03:55:55.654Z,879.00
2019-03-27T03:56:57.401Z,879.00
2019-03-27T03:57:56.916Z,879.00
2019-03-27T03:58:57.388Z,879.00
2019-03-27T03:59:58.244Z,878.00
2019-03-27T04:00:58.926Z,879.00
2019-03-27T04:01:59.543Z,879.00
2019-03-27T04:03:00.143Z,879.00
2019-03-27T04:04:00.594Z,879.00
2019-03-27T04:05:01.349Z,879.00
2019-03-27T04:06:02.174Z,879.00
2019-03-27T04:07:02.108Z,879.00
2019-03-27T04:08:04.079Z,879.00
2019-03-27T04:09:03.650Z,879.00
2019-03-27T04:10:05.090Z,881.00
2019-03-27T04:11:05.758Z,881.00
2019-03-27T04:12:06.370Z,880.00
2019-03-27T04:13:06.825Z,879.00
2019-03-27T04:14:07.483Z,879.00
2019-03-27T04:15:07.979Z,881.00
2019-03-27T04:15:16.572Z,874.00
2019-03-27T04:16:18.188Z,883.00
2019-03-27T04:17:18.672Z,881.00
2019-03-27T04:18:19.252Z,880.00
2019-03-27T04:19:19.810Z,880.00
2019-03-27T04:20:20.560Z,880.00
2019-03-27T04:21:21.283Z,880.00
2019-03-27T04:22:21.776Z,880.00
2019-03-27T04:23:22.250Z,879.00
2019-03-27T04:24:23.060Z,879.00
2019-03-27T04:25:22.433Z,868.00
2019-03-27T04:26:23.723Z,868.00
2019-03-27T04:27:24.474Z,878.00
2019-03-27T04:28:24.955Z,878.00
2019-03-27T04:29:25.749Z,878.00
2019-03-27T04:30:25.240Z,879.00
2019-03-27T04:31:26.992Z,878.00
2019-03-27T04:32:26.531Z,878.00
2019-03-27T04:33:28.270Z,878.00
2019-03-27T04:34:28.660Z,879.00
2019-03-27T04:35:29.241Z,862.00
2019-03-27T04:36:29.786Z,878.00
2019-03-27T04:37:30.434Z,879.00
2019-03-27T04:38:31.182Z,879.00
2019-03-27T04:39:31.574Z,880.00
2019-03-27T04:40:32.162Z,880.00
2019-03-27T04:41:32.684Z,880.00
2019-03-27T04:42:33.220Z,880.00
2019-03-27T04:43:33.970Z,881.00
2019-03-27T04:44:34.474Z,880.00
2019-03-27T04:45:34.969Z,883.00
2019-03-27T04:46:35.687Z,883.00
2019-03-27T04:47:36.287Z,881.00
2019-03-27T04:48:36.308Z,882.00
2019-03-27T04:49:36.775Z,881.00
2019-03-27T04:50:37.222Z,881.00
2019-03-27T04:51:37.908Z,881.00
2019-03-27T04:52:38.366Z,880.00
2019-03-27T04:53:38.816Z,882.00
2019-03-27T04:54:39.738Z,883.00
2019-03-27T04:55:40.171Z,884.00
2019-03-27T04:56:41.080Z,883.00
2019-03-27T04:57:41.832Z,884.00
2019-03-27T04:58:42.395Z,883.00
2019-03-27T04:59:42.876Z,882.00
2019-03-27T05:00:43.419Z,883.00
2019-03-27T05:00:52.069Z,883.00
2019-03-27T05:01:52.484Z,883.00
2019-03-27T05:02:53.965Z,873.00
2019-03-27T05:03:53.983Z,873.00
2019-03-27T05:04:54.459Z,873.00
2019-03-27T05:05:54.961Z,872.00
2019-03-27T05:06:55.395Z,873.00
2019-03-27T05:07:55.926Z,873.00
2019-03-27T05:08:56.468Z,872.00
2019-03-27T05:09:56.934Z,874.00
2019-03-27T05:10:57.451Z,874.00
2019-03-27T05:11:58.030Z,874.00
2019-03-27T05:12:58.766Z,883.00
2019-03-27T05:13:59.214Z,882.00
2019-03-27T05:15:00.017Z,881.00
2019-03-27T05:16:00.594Z,882.00
2019-03-27T05:17:01.135Z,882.00
2019-03-27T05:18:01.735Z,882.00
2019-03-27T05:19:02.330Z,883.00
2019-03-27T05:20:02.982Z,883.00
2019-03-27T05:21:03.460Z,884.00
2019-03-27T05:22:02.991Z,883.00
2019-03-27T05:23:03.543Z,883.00
2019-03-27T05:24:05.088Z,883.00
2019-03-27T05:25:05.568Z,883.00
2019-03-27T05:26:06.012Z,881.00
2019-03-27T05:27:06.701Z,885.00
2019-03-27T05:28:07.189Z,886.00
2019-03-27T05:29:07.689Z,886.00
2019-03-27T05:30:09.145Z,888.00
2019-03-27T05:31:08.840Z,885.00
2019-03-27T05:32:09.323Z,885.00
2019-03-27T05:33:10.016Z,885.00
2019-03-27T05:34:10.432Z,884.00
2019-03-27T05:35:09.910Z,884.00
2019-03-27T05:36:11.713Z,878.00
2019-03-27T05:37:12.235Z,876.00
2019-03-27T05:38:13.049Z,884.00
2019-03-27T05:39:14.720Z,884.00
2019-03-27T05:40:13.045Z,884.00
2019-03-27T05:41:14.529Z,884.00
2019-03-27T05:42:15.292Z,884.00
2019-03-27T05:43:15.799Z,885.00
2019-03-27T05:44:16.258Z,885.00
2019-03-27T05:45:16.721Z,884.00
2019-03-27T05:46:17.506Z,884.00
2019-03-27T05:47:18.113Z,885.00
2019-03-27T05:47:26.683Z,884.00
2019-03-27T05:48:29.519Z,885.00
2019-03-27T05:49:29.180Z,884.00
2019-03-27T05:50:29.886Z,885.00
2019-03-27T05:51:30.353Z,886.00
2019-03-27T05:52:31.101Z,885.00
2019-03-27T05:53:32.083Z,885.00
2019-03-27T05:54:32.830Z,886.00
2019-03-27T05:55:33.360Z,886.00
2019-03-27T05:56:33.834Z,885.00
2019-03-27T05:57:34.588Z,884.00
2019-03-27T05:58:35.158Z,884.00
2019-03-27T05:59:34.571Z,883.00
2019-03-27T06:00:35.999Z,876.00
2019-03-27T06:01:36.738Z,876.00
2019-03-27T06:02:37.267Z,874.00
2019-03-27T06:03:37.951Z,883.00
2019-03-27T06:04:38.397Z,882.00
2019-03-27T06:05:38.891Z,881.00
2019-03-27T06:06:39.578Z,880.00
2019-03-27T06:07:40.305Z,880.00
2019-03-27T06:08:40.980Z,881.00
2019-03-27T06:09:41.356Z,881.00
2019-03-27T06:10:41.930Z,883.00
2019-03-27T06:11:41.412Z,883.00
2019-03-27T06:12:42.840Z,883.00
2019-03-27T06:13:43.721Z,883.00
2019-03-27T06:14:44.252Z,883.00
2019-03-27T06:15:45.264Z,882.00
2019-03-27T06:16:44.172Z,880.00
2019-03-27T06:17:45.754Z,880.00
2019-03-27T06:18:46.196Z,880.00
2019-03-27T06:19:47.020Z,880.00
2019-03-27T06:20:47.863Z,880.00
2019-03-27T06:21:48.455Z,881.00
2019-03-27T06:22:49.035Z,880.00
2019-03-27T06:23:49.483Z,879.00
2019-03-27T06:24:50.005Z,879.00
2019-03-27T06:25:50.696Z,879.00
2019-03-27T06:26:51.402Z,878.00
2019-03-27T06:27:51.937Z,878.00
2019-03-27T06:28:52.711Z,878.00
2019-03-27T06:29:53.277Z,876.00
2019-03-27T06:30:53.710Z,877.00
2019-03-27T06:31:54.232Z,876.00
2019-03-27T06:32:02.827Z,874.00
2019-03-27T06:33:03.969Z,874.00
2019-03-27T06:34:04.553Z,874.00
2019-03-27T06:35:05.128Z,874.00
2019-03-27T06:36:05.638Z,874.00
2019-03-27T06:37:06.421Z,876.00
2019-03-27T06:38:07.119Z,874.00
2019-03-27T06:39:07.654Z,874.00
2019-03-27T06:40:07.110Z,874.00
2019-03-27T06:41:08.694Z,874.00
2019-03-27T06:42:09.231Z,874.00
2019-03-27T06:43:09.695Z,874.00
2019-03-27T06:44:10.563Z,866.00
2019-03-27T06:45:11.178Z,877.00
2019-03-27T06:46:11.901Z,876.00
2019-03-27T06:47:12.600Z,876.00
2019-03-27T06:48:25.480Z,874.00
2019-03-27T06:49:12.577Z,874.00
2019-03-27T06:50:13.980Z,876.00
2019-03-27T06:51:14.414Z,876.00
2019-03-27T06:52:14.891Z,878.00
2019-03-27T06:53:15.264Z,878.00
2019-03-27T06:54:15.857Z,878.00
2019-03-27T06:55:16.791Z,879.00
2019-03-27T06:56:17.106Z,871.00
2019-03-27T06:57:17.578Z,871.00
2019-03-27T06:58:16.949Z,870.00
2019-03-27T06:59:18.402Z,871.00
2019-03-27T07:00:18.874Z,870.00
2019-03-27T07:01:19.283Z,879.00
2019-03-27T07:02:19.776Z,879.00
2019-03-27T07:03:20.129Z,879.00
2019-03-27T07:04:20.573Z,878.00
2019-03-27T07:05:21.511Z,876.00
2019-03-27T07:06:21.910Z,876.00
2019-03-27T07:07:22.322Z,874.00
2019-03-27T07:08:22.687Z,874.00
2019-03-27T07:09:23.081Z,876.00
2019-03-27T07:10:23.628Z,876.00
2019-03-27T07:11:24.192Z,876.00
2019-03-27T07:12:24.494Z,878.00
2019-03-27T07:13:25.291Z,869.00
2019-03-27T07:14:26.105Z,867.00
2019-03-27T07:15:26.936Z,866.00
2019-03-27T07:17:30.944Z,876.00
2019-03-27T07:18:40.110Z,874.00
2019-03-27T07:19:32.065Z,873.00
2019-03-27T07:20:33.965Z,873.00
2019-03-27T07:21:34.772Z,871.00
2019-03-27T07:22:35.330Z,869.00
2019-03-27T07:23:36.250Z,868.00
2019-03-27T07:24:36.505Z,868.00
2019-03-27T07:25:36.880Z,868.00
2019-03-27T07:26:37.108Z,867.00
2019-03-27T07:27:37.629Z,867.00
2019-03-27T07:28:38.455Z,866.00
2019-03-27T07:29:38.960Z,866.00
2019-03-27T07:30:39.378Z,865.00
2019-03-27T07:31:39.717Z,861.00
2019-03-27T07:32:40.128Z,860.00
2019-03-27T07:33:40.545Z,861.00
2019-03-27T07:34:40.989Z,859.00
2019-03-27T07:35:41.566Z,859.00
2019-03-27T07:36:42.117Z,859.00
2019-03-27T07:37:42.467Z,857.00
2019-03-27T07:38:43.030Z,856.00
2019-03-27T07:39:43.453Z,854.00
2019-03-27T07:40:43.747Z,853.00
2019-03-27T07:41:44.142Z,852.00
2019-03-27T07:42:44.777Z,852.00
2019-03-27T07:43:45.337Z,849.00
2019-03-27T07:44:44.643Z,849.00
2019-03-27T07:45:46.626Z,849.00
2019-03-27T07:46:47.115Z,852.00
2019-03-27T07:47:48.284Z,850.00
2019-03-27T07:48:53.935Z,850.00
2019-03-27T07:49:47.619Z,849.00
2019-03-27T07:50:49.156Z,847.00
2019-03-27T07:51:49.771Z,847.00
2019-03-27T07:52:50.191Z,846.00
2019-03-27T07:53:50.631Z,845.00
2019-03-27T07:54:51.542Z,844.00
2019-03-27T07:55:51.953Z,843.00
2019-03-27T07:56:52.921Z,842.00
2019-03-27T07:57:53.787Z,842.00
2019-03-27T07:58:54.599Z,843.00
2019-03-27T07:59:54.871Z,841.00
2019-03-27T08:00:54.428Z,841.00
2019-03-27T08:01:55.791Z,841.00
2019-03-27T08:02:56.323Z,843.00
2019-03-27T08:03:56.701Z,838.00
2019-03-27T08:04:57.152Z,845.00
2019-03-27T08:05:05.691Z,846.00
2019-03-27T08:06:07.168Z,838.00
2019-03-27T08:07:07.590Z,845.00
2019-03-27T08:08:07.985Z,845.00
2019-03-27T08:09:08.507Z,843.00
2019-03-27T08:10:08.886Z,843.00
2019-03-27T08:11:09.288Z,842.00
2019-03-27T08:12:09.541Z,835.00
2019-03-27T08:13:10.091Z,842.00
2019-03-27T08:14:10.902Z,834.00
2019-03-27T08:15:11.478Z,834.00
2019-03-27T08:16:12.820Z,834.00
2019-03-27T08:17:12.457Z,833.00
2019-03-27T08:18:12.679Z,833.00
2019-03-27T08:19:13.134Z,834.00
2019-03-27T08:20:13.637Z,833.00
2019-03-27T08:21:14.113Z,833.00
2019-03-27T08:22:14.603Z,840.00
2019-03-27T08:23:15.024Z,840.00
2019-03-27T08:24:15.844Z,840.00
2019-03-27T08:25:20.696Z,832.00
2019-03-27T08:26:17.108Z,840.00
2019-03-27T08:27:17.518Z,834.00
2019-03-27T08:28:17.951Z,834.00
2019-03-27T08:29:18.617Z,841.00
2019-03-27T08:30:19.241Z,841.00
2019-03-27T08:31:19.753Z,833.00
2019-03-27T08:32:20.175Z,833.00
2019-03-27T08:33:20.524Z,845.00
2019-03-27T08:34:21.451Z,838.00
2019-03-27T08:35:21.854Z,849.00
2019-03-27T08:36:22.238Z,849.00
2019-03-27T08:37:23.436Z,849.00
2019-03-27T08:38:23.050Z,849.00
2019-03-27T08:39:24.476Z,849.00
2019-03-27T08:40:25.269Z,841.00
2019-03-27T08:41:25.719Z,849.00
2019-03-27T08:42:25.397Z,852.00
2019-03-27T08:43:26.158Z,845.00
2019-03-27T08:44:27.408Z,844.00
2019-03-27T08:45:27.781Z,842.00
2019-03-27T08:46:28.171Z,853.00
2019-03-27T08:47:28.942Z,846.00
2019-03-27T08:48:29.787Z,853.00
2019-03-27T08:49:30.631Z,853.00
2019-03-27T08:50:31.088Z,853.00
2019-03-27T08:50:42.130Z,846.00
2019-03-27T08:51:42.665Z,846.00
2019-03-27T08:52:44.091Z,855.00
2019-03-27T08:53:43.572Z,855.00
2019-03-27T08:54:43.999Z,856.00
2019-03-27T08:55:44.525Z,857.00
2019-03-27T08:56:45.207Z,857.00
2019-03-27T08:57:45.742Z,857.00
2019-03-27T08:58:46.224Z,860.00
2019-03-27T08:59:47.048Z,859.00
2019-03-27T09:00:46.568Z,858.00
2019-03-27T09:01:47.983Z,858.00
2019-03-27T09:02:48.479Z,857.00
2019-03-27T09:03:49.242Z,857.00
2019-03-27T09:04:48.801Z,858.00
2019-03-27T09:05:49.175Z,858.00
2019-03-27T09:06:50.554Z,858.00
2019-03-27T09:07:50.971Z,858.00
2019-03-27T09:08:51.356Z,858.00
2019-03-27T09:09:51.525Z,859.00
2019-03-27T09:10:51.948Z,859.00
2019-03-27T09:11:52.321Z,858.00
2019-03-27T09:12:52.720Z,858.00
2019-03-27T09:13:52.410Z,858.00
2019-03-27T09:14:55.228Z,857.00
2019-03-27T09:15:54.148Z,849.00
2019-03-27T09:16:54.709Z,857.00
2019-03-27T09:17:55.162Z,848.00
2019-03-27T09:18:55.861Z,857.00
2019-03-27T09:19:56.128Z,852.00
2019-03-27T09:20:57.953Z,857.00
2019-03-27T09:21:57.549Z,857.00
2019-03-27T09:22:57.948Z,856.00
2019-03-27T09:23:58.824Z,850.00
2019-03-27T09:24:59.348Z,857.00
2019-03-27T09:26:00.108Z,857.00
2019-03-27T09:27:00.392Z,856.00
2019-03-27T09:28:01.817Z,856.00
2019-03-27T09:29:01.451Z,858.00
2019-03-27T09:30:02.302Z,857.00
2019-03-27T09:31:02.869Z,857.00
2019-03-27T09:32:02.874Z,856.00
2019-03-27T09:33:03.260Z,847.00
2019-03-27T09:34:04.961Z,849.00
2019-03-27T09:35:04.182Z,860.00
2019-03-27T09:35:13.236Z,859.00
2019-03-27T09:36:14.716Z,858.00
2019-03-27T09:37:15.341Z,856.00
2019-03-27T09:38:15.741Z,857.00
2019-03-27T09:39:15.901Z,856.00
2019-03-27T09:40:16.263Z,855.00
2019-03-27T09:41:21.243Z,855.00
2019-03-27T09:42:16.467Z,855.00
2019-03-27T09:43:18.944Z,855.00
2019-03-27T09:44:18.492Z,855.00
2019-03-27T09:45:18.912Z,859.00
2019-03-27T09:46:19.483Z,859.00
2019-03-27T09:47:20.327Z,859.00
2019-03-27T09:48:20.944Z,857.00
2019-03-27T09:49:20.428Z,856.00
2019-03-27T09:50:22.195Z,856.00
2019-03-27T09:51:22.875Z,848.00
2019-03-27T09:52:23.516Z,856.00
2019-03-27T09:53:24.417Z,856.00
2019-03-27T09:54:24.814Z,846.00
2019-03-27T09:55:25.333Z,842.00
2019-03-27T09:56:26.116Z,855.00
2019-03-27T09:57:26.679Z,855.00
2019-03-27T09:58:27.228Z,846.00
2019-03-27T09:59:27.521Z,853.00
2019-03-27T10:00:28.030Z,853.00
2019-03-27T10:01:28.534Z,853.00
2019-03-27T10:02:29.005Z,856.00
2019-03-27T10:03:28.165Z,855.00
2019-03-27T10:04:29.716Z,855.00
2019-03-27T10:05:29.737Z,855.00
2019-03-27T10:06:29.763Z,853.00
2019-03-27T10:07:30.249Z,853.00
2019-03-27T10:08:30.629Z,853.00
2019-03-27T10:09:31.510Z,853.00
2019-03-27T10:10:31.994Z,853.00
2019-03-27T10:11:32.766Z,854.00
2019-03-27T10:12:32.990Z,853.00
2019-03-27T10:13:33.709Z,852.00
2019-03-27T10:14:34.331Z,845.00
2019-03-27T10:15:33.933Z,842.00
2019-03-27T10:16:35.273Z,853.00
2019-03-27T10:17:34.574Z,854.00
2019-03-27T10:18:36.051Z,855.00
2019-03-27T10:19:36.081Z,853.00
2019-03-27T10:20:36.624Z,853.00
2019-03-27T10:20:45.500Z,846.00
2019-03-27T10:21:47.162Z,853.00
2019-03-27T10:22:49.162Z,846.00
2019-03-27T10:23:47.494Z,856.00
2019-03-27T10:24:49.233Z,854.00
2019-03-27T10:25:49.361Z,854.00
2019-03-27T10:26:49.793Z,853.00
2019-03-27T10:27:50.286Z,855.00
2019-03-27T10:28:50.740Z,855.00
2019-03-27T10:29:52.269Z,849.00
2019-03-27T10:30:51.090Z,849.00
2019-03-27T10:31:51.605Z,849.00
2019-03-27T10:32:52.889Z,849.00
2019-03-27T10:33:53.141Z,848.00
2019-03-27T10:34:52.924Z,855.00
2019-03-27T10:35:53.198Z,855.00
2019-03-27T10:36:54.577Z,853.00
2019-03-27T10:37:55.371Z,852.00
2019-03-27T10:38:54.812Z,852.00
2019-03-27T10:39:55.158Z,852.00
2019-03-27T10:40:56.502Z,853.00
2019-03-27T10:41:56.925Z,854.00
2019-03-27T10:42:57.689Z,853.00
2019-03-27T10:43:58.021Z,854.00
2019-03-27T10:44:57.245Z,844.00
2019-03-27T10:45:59.081Z,849.00
2019-03-27T10:46:59.569Z,849.00
2019-03-27T10:48:00.102Z,849.00
2019-03-27T10:49:00.742Z,849.00
2019-03-27T10:50:01.610Z,849.00
2019-03-27T10:51:02.181Z,849.00
2019-03-27T10:52:02.666Z,849.00
2019-03-27T10:53:03.119Z,849.00
2019-03-27T10:54:03.617Z,842.00
2019-03-27T10:55:03.899Z,841.00
2019-03-27T10:56:03.780Z,850.00
2019-03-27T10:57:05.217Z,849.00
2019-03-27T10:58:05.582Z,849.00
2019-03-27T10:59:06.372Z,849.00
2019-03-27T11:00:06.679Z,850.00
2019-03-27T11:01:07.310Z,850.00
2019-03-27T11:02:06.925Z,849.00
2019-03-27T11:03:08.446Z,849.00
2019-03-27T11:04:08.009Z,846.00
2019-03-27T11:05:09.012Z,850.00
2019-03-27T11:06:09.655Z,846.00
2019-03-27T11:07:10.269Z,846.00
2019-03-27T11:08:11.544Z,846.00
2019-03-27T11:09:10.471Z,846.00
2019-03-27T11:10:12.041Z,852.00
2019-03-27T11:11:12.191Z,855.00
2019-03-27T11:12:12.643Z,858.00
2019-03-27T11:13:13.188Z,859.00
2019-03-27T11:14:13.602Z,859.00
2019-03-27T11:15:14.522Z,857.00
2019-03-27T11:15:23.062Z,857.00
2019-03-27T11:16:24.160Z,856.00
2019-03-27T11:17:24.808Z,852.00
2019-03-27T11:18:24.400Z,860.00
2019-03-27T11:19:26.171Z,859.00
2019-03-27T11:20:31.111Z,857.00
2019-03-27T11:21:26.091Z,857.00
2019-03-27T11:22:27.671Z,853.00
2019-03-27T11:23:28.062Z,856.00
2019-03-27T11:24:28.443Z,856.00
2019-03-27T11:25:28.903Z,855.00
2019-03-27T11:26:29.362Z,853.00
2019-03-27T11:27:29.974Z,852.00
2019-03-27T11:28:30.504Z,849.00
2019-03-27T11:29:30.894Z,852.00
2019-03-27T11:30:31.685Z,850.00
2019-03-27T11:31:32.051Z,852.00
2019-03-27T11:32:31.513Z,849.00
2019-03-27T11:33:32.984Z,848.00
2019-03-27T11:34:33.450Z,848.00
2019-03-27T11:35:33.954Z,847.00
2019-03-27T11:36:35.294Z,846.00
2019-03-27T11:37:33.924Z,847.00
2019-03-27T11:38:37.542Z,848.00
2019-03-27T11:39:34.712Z,849.00
2019-03-27T11:40:36.071Z,848.00
2019-03-27T11:41:36.548Z,849.00
2019-03-27T11:42:37.078Z,841.00
2019-03-27T11:43:37.498Z,847.00
2019-03-27T11:44:38.047Z,848.00
2019-03-27T11:45:38.449Z,848.00
2019-03-27T11:46:39.075Z,848.00
2019-03-27T11:47:39.460Z,853.00
2019-03-27T11:48:39.931Z,856.00
2019-03-27T11:49:40.329Z,858.00
2019-03-27T11:50:45.044Z,860.00
2019-03-27T11:51:40.344Z,859.00
2019-03-27T11:52:40.633Z,857.00
2019-03-27T11:53:42.166Z,855.00
2019-03-27T11:54:42.747Z,853.00
2019-03-27T11:55:43.106Z,855.00
2019-03-27T11:56:43.654Z,855.00
2019-03-27T11:57:43.999Z,854.00
2019-03-27T11:58:44.590Z,854.00
2019-03-27T11:59:53.742Z,854.00
2019-03-27T12:00:54.428Z,854.00
2019-03-27T12:01:45.084Z,853.00
2019-03-27T12:02:46.622Z,852.00
2019-03-27T12:03:47.333Z,853.00
2019-03-27T12:04:47.677Z,855.00
2019-03-27T12:05:48.422Z,852.00
2019-03-27T12:06:48.889Z,852.00
2019-03-27T12:06:57.413Z,850.00
2019-03-27T12:07:58.946Z,850.00
2019-03-27T12:08:59.525Z,852.00
2019-03-27T12:10:00.186Z,852.00
2019-03-27T12:11:00.845Z,852.00
2019-03-27T12:12:01.387Z,852.00
2019-03-27T12:13:01.773Z,852.00
2019-03-27T12:14:02.201Z,849.00
2019-03-27T12:15:01.771Z,845.00
2019-03-27T12:16:03.567Z,844.00
2019-03-27T12:17:04.248Z,842.00
2019-03-27T12:18:04.667Z,848.00
2019-03-27T12:19:05.135Z,841.00
2019-03-27T12:20:05.710Z,848.00
2019-03-27T12:21:06.274Z,848.00
2019-03-27T12:22:06.717Z,853.00
2019-03-27T12:23:07.074Z,852.00
2019-03-27T12:24:07.542Z,850.00